Time;durP1;ratioP1;P1;durP2;ratioP2;P2;SDS_P1;SDS_P2;PMS_P1;PMS_P2;Temp;Humidity;BMP_temperature;BMP_pressure;BME280_temperature;BME280_humidity;BME280_pressure;Samples;Min_cycle;Max_cycle;Signal;HPM_P1;HPM_P2
2022/03/27 00:00:13;;;;;;;31.02;14.02;;;7.50;76.30;;;;;;6196634;23;19997;-81
2022/03/27 00:02:41;;;;;;;29.25;13.25;;;7.40;76.90;;;;;;6224149;23;20201;-83
2022/03/27 00:05:16;;;;;;;;;;;7.30;76.60;;;;;;6198032;23;19997;-81
2022/03/27 00:07:43;;;;;;;30.83;13.20;;;7.20;77.30;;;;;;6196856;23;19900;-81
2022/03/27 00:10:09;;;;;;;27.20;12.93;;;7.20;78.00;;;;;;6196963;23;20015;-79
2022/03/27 00:12:38;;;;;;;31.15;13.65;;;7.20;77.40;;;;;;6197279;23;20066;-83
2022/03/27 00:15:19;;;;;;;29.55;13.77;;;7.20;77.60;;;;;;6197596;23;20005;-80
2022/03/27 00:17:48;;;;;;;27.17;13.57;;;7.20;77.60;;;;;;6197687;23;20019;-82
2022/03/27 00:20:17;;;;;;;29.42;12.85;;;7.10;77.60;;;;;;6198012;23;19993;-80
2022/03/27 00:22:46;;;;;;;29.02;12.80;;;7.20;76.70;;;;;;6198839;23;20060;-79
2022/03/27 00:25:12;;;;;;;27.52;13.20;;;7.10;77.10;;;;;;6197311;23;20067;-80
2022/03/27 00:27:37;;;;;;;25.63;12.73;;;7.10;77.80;;;;;;6224057;23;19993;-81
2022/03/27 00:30:06;;;;;;;17.85;9.30;;;7.00;78.30;;;;;;6197967;23;20015;-81
2022/03/27 00:32:32;;;;;;;26.83;12.40;;;7.00;78.90;;;;;;6224996;23;20019;-81
2022/03/27 00:34:58;;;;;;;26.13;11.82;;;6.90;78.90;;;;;;6199032;23;20012;-78
2022/03/27 00:37:30;;;;;;;24.85;12.43;;;6.80;79.40;;;;;;6198841;23;20004;-81
2022/03/27 00:39:56;;;;;;;29.75;12.32;;;6.80;78.50;;;;;;6225894;23;20056;-81
2022/03/27 00:42:22;;;;;;;26.00;12.70;;;6.80;77.90;;;;;;6225412;23;20004;-81
2022/03/27 00:44:54;;;;;;;26.52;12.73;;;6.80;78.20;;;;;;6199717;23;20176;-81
2022/03/27 00:47:19;;;;;;;26.35;12.68;;;6.80;76.70;;;;;;6211737;23;20071;-80
2022/03/27 00:49:45;;;;;;;26.48;12.00;;;6.80;76.50;;;;;;6210724;23;20178;-82
2022/03/27 00:52:11;;;;;;;24.20;11.88;;;6.80;77.90;;;;;;6213462;23;20055;-80
2022/03/27 00:54:38;;;;;;;27.23;12.52;;;6.80;77.60;;;;;;6213731;23;20008;-81
2022/03/27 00:57:04;;;;;;;26.77;13.32;;;6.80;77.60;;;;;;6195073;23;20080;-81
2022/03/27 00:59:31;;;;;;;31.75;13.38;;;6.80;78.90;;;;;;6197916;23;20001;-81
2022/03/27 05:02:01;;;;;;;26.90;12.25;;;4.10;90.10;;;;;;6127114;23;20243;-85
2022/03/27 05:04:28;;;;;;;24.70;12.30;;;4.10;89.70;;;;;;6136791;23;20044;-82
2022/03/27 05:06:54;;;;;;;28.65;12.15;;;4.10;89.70;;;;;;6162811;23;20028;-82
2022/03/27 05:09:20;;;;;;;22.48;11.52;;;4.10;90.20;;;;;;6114399;23;20159;-83
2022/03/27 05:11:47;;;;;;;26.73;12.80;;;4.00;88.50;;;;;;6138298;23;20072;-82
2022/03/27 05:14:12;;;;;;;26.85;12.85;;;4.10;90.30;;;;;;6164676;23;20056;-81
2022/03/27 05:16:38;;;;;;;29.15;12.88;;;4.00;90.90;;;;;;6137380;23;20192;-82
2022/03/27 05:19:04;;;;;;;30.58;13.85;;;4.00;90.40;;;;;;6114374;23;19993;-82
2022/03/27 05:21:35;;;;;;;26.05;12.23;;;4.00;90.40;;;;;;6163321;23;20010;-79
2022/03/27 05:24:01;;;;;;;28.50;12.65;;;4.00;91.10;;;;;;6139470;23;20322;-81
2022/03/27 05:26:28;;;;;;;26.00;14.10;;;3.90;91.50;;;;;;6114616;23;20069;-81
2022/03/27 05:28:57;;;;;;;26.25;13.23;;;3.90;91.40;;;;;;6163041;23;20006;-81
2022/03/27 05:31:26;;;;;;;26.45;11.88;;;3.90;91.30;;;;;;6113249;23;20084;-81
2022/03/27 05:33:52;;;;;;;29.35;13.38;;;3.90;90.80;;;;;;6163144;23;20013;-81
2022/03/27 05:36:17;;;;;;;25.95;13.43;;;4.00;91.30;;;;;;6138571;23;20002;-83
2022/03/27 05:38:43;;;;;;;29.38;13.25;;;4.00;91.20;;;;;;6162884;23;20009;-82
2022/03/27 05:41:12;;;;;;;29.55;13.13;;;4.10;90.90;;;;;;6138628;23;20005;-83
2022/03/27 05:43:37;;;;;;;;;;;4.10;90.90;;;;;;6163814;23;20061;-81
2022/03/27 05:46:03;;;;;;;26.27;11.75;;;4.20;90.80;;;;;;6112569;23;20098;-85
2022/03/27 05:48:29;;;;;;;28.73;13.60;;;4.20;90.90;;;;;;6106329;23;20017;-82
2022/03/27 05:50:55;;;;;;;26.58;13.38;;;4.30;91.00;;;;;;6164414;23;20117;-83
2022/03/27 05:53:21;;;;;;;27.67;13.40;;;4.30;91.00;;;;;;6114400;23;20073;-83
2022/03/27 05:55:47;;;;;;;32.97;13.52;;;4.40;90.90;;;;;;6137881;23;20005;-82
2022/03/27 05:58:31;;;;;;;26.30;13.13;;;4.40;90.70;;;;;;6138582;23;20195;-82
2022/03/27 06:00:57;;;;;;;26.42;13.50;;;4.50;90.10;;;;;;6126004;23;20049;-82
2022/03/27 06:03:23;;;;;;;30.63;13.98;;;4.60;90.20;;;;;;6123199;23;20021;-83
2022/03/27 06:05:49;;;;;;;31.70;14.63;;;4.60;90.30;;;;;;6132769;23;20032;-82
2022/03/27 06:08:15;;;;;;;25.38;12.85;;;4.70;90.10;;;;;;6133784;23;20014;-82
2022/03/27 06:10:41;;;;;;;26.60;13.65;;;4.80;90.00;;;;;;6108655;23;19998;-80
2022/03/27 06:13:10;;;;;;;25.20;13.00;;;4.90;89.90;;;;;;6133727;23;20010;-83
2022/03/27 06:16:02;;;;;;;28.27;13.57;;;5.00;88.70;;;;;;6133677;23;20093;-81
2022/03/27 06:18:28;;;;;;;28.98;14.13;;;5.00;89.10;;;;;;6133632;23;20006;-82
2022/03/27 06:20:53;;;;;;;25.67;13.02;;;5.20;88.90;;;;;;6108031;23;20002;-80
2022/03/27 06:23:19;;;;;;;25.52;13.18;;;5.30;87.30;;;;;;6132957;23;20064;-80
2022/03/27 06:29:33;;;;;;;27.52;14.25;;;5.50;86.40;;;;;;6138740;23;20005;-80
2022/03/27 06:31:59;;;;;;;27.67;13.40;;;5.60;87.30;;;;;;6136334;23;20065;-81
2022/03/27 06:34:26;;;;;;;30.25;14.65;;;5.60;87.30;;;;;;6137365;23;20017;-81
2022/03/27 06:36:52;;;;;;;31.02;13.70;;;5.80;87.00;;;;;;6138504;23;19986;-78
2022/03/27 06:39:39;;;;;;;29.05;14.15;;;5.80;86.30;;;;;;6139263;23;20006;-79
2022/03/27 06:42:05;;;;;;;26.15;13.35;;;5.90;85.80;;;;;;6138352;23;20006;-79
2022/03/27 06:44:34;;;;;;;30.80;14.45;;;6.00;84.50;;;;;;6110128;23;20283;-80
2022/03/27 06:47:06;;;;;;;30.35;13.73;;;6.20;85.10;;;;;;6133309;23;20021;-81
2022/03/27 06:49:32;;;;;;;30.17;14.30;;;6.30;84.60;;;;;;6133411;23;20025;-81
2022/03/27 06:52:07;;;;;;;28.13;14.15;;;6.40;83.60;;;;;;6132771;23;20288;-81
2022/03/27 06:55:05;;;;;;;27.75;14.07;;;6.60;83.80;;;;;;6108740;23;20009;-80
2022/03/27 07:08:03;;;;;;;27.38;14.43;;;7.00;82.30;;;;;;6133269;23;20024;-82
2022/03/27 07:10:30;;;;;;;31.20;14.90;;;7.00;81.70;;;;;;6072944;23;20007;-80
2022/03/27 07:13:34;;;;;;;28.15;14.00;;;7.10;81.80;;;;;;6048584;23;20315;-80
2022/03/27 07:16:26;;;;;;;28.60;13.75;;;7.20;81.30;;;;;;6086430;23;20021;-80
2022/03/27 07:19:02;;;;;;;28.52;14.05;;;7.50;80.60;;;;;;6100853;23;20018;-81
2022/03/27 07:21:40;;;;;;;30.02;16.42;;;7.60;81.50;;;;;;6102502;23;20010;-81
2022/03/27 07:24:31;;;;;;;25.88;14.50;;;7.70;80.80;;;;;;6102497;23;20064;-80
2022/03/27 07:26:57;;;;;;;27.58;15.45;;;7.80;80.10;;;;;;6103808;23;20018;-79
2022/03/27 07:29:22;;;;;;;31.70;15.23;;;8.00;79.50;;;;;;6107947;23;20069;-78
2022/03/27 07:31:49;;;;;;;28.27;15.35;;;8.10;79.00;;;;;;6109238;23;20014;-82
2022/03/27 07:34:16;;;;;;;30.30;14.90;;;8.20;79.20;;;;;;6104352;23;20010;-79
2022/03/27 07:36:42;;;;;;;27.90;15.77;;;8.30;78.90;;;;;;6111911;23;20065;-79
2022/03/27 07:39:11;;;;;;;28.80;14.95;;;8.40;78.20;;;;;;6092858;23;20010;-81
2022/03/27 07:41:39;;;;;;;30.95;15.25;;;8.50;77.80;;;;;;6119629;23;20014;-80
2022/03/27 07:44:06;;;;;;;25.35;14.57;;;8.70;77.60;;;;;;6112729;23;20021;-80
2022/03/27 07:46:31;;;;;;;31.65;15.05;;;8.80;76.50;;;;;;6102740;23;20018;-81
2022/03/27 07:48:57;;;;;;;29.90;14.55;;;8.90;76.70;;;;;;6101392;23;20010;-80
2022/03/27 07:51:23;;;;;;;29.85;15.77;;;9.00;76.20;;;;;;6101837;23;20245;-80
2022/03/27 07:53:51;;;;;;;27.95;15.18;;;9.10;75.70;;;;;;6102078;23;20003;-80
2022/03/27 07:56:18;;;;;;;31.17;15.15;;;9.20;75.30;;;;;;6171055;23;20017;-80
2022/03/27 07:58:47;;;;;;;24.25;14.85;;;9.20;74.70;;;;;;6186325;23;20009;-80
2022/03/27 08:01:14;;;;;;;;;;;9.30;74.60;;;;;;6186483;23;20014;-80
2022/03/27 08:03:44;;;;;;;28.80;14.17;;;9.50;73.70;;;;;;6186025;23;19908;-81
2022/03/27 08:06:10;;;;;;;32.22;15.65;;;9.70;73.40;;;;;;6166413;23;20020;-80
2022/03/27 08:08:36;;;;;;;27.05;14.95;;;9.70;73.60;;;;;;6192719;23;20061;-82
2022/03/27 08:11:08;;;;;;;26.55;14.25;;;9.90;72.50;;;;;;6190338;23;20009;-82
2022/03/27 08:13:34;;;;;;;27.70;14.60;;;10.00;72.40;;;;;;6191609;23;20016;-80
2022/03/27 08:16:00;;;;;;;28.05;15.65;;;10.10;72.60;;;;;;6190452;23;20025;-81
2022/03/27 08:18:26;;;;;;;24.77;14.13;;;10.20;72.10;;;;;;6166694;23;20194;-81
2022/03/27 08:20:52;;;;;;;29.35;15.18;;;10.30;71.70;;;;;;6191122;23;20301;-80
2022/03/27 08:23:18;;;;;;;29.38;15.15;;;10.50;71.70;;;;;;6191505;23;20067;-80
2022/03/27 08:28:39;;;;;;;27.23;14.88;;;10.80;71.60;;;;;;6191468;23;20108;-82
2022/03/27 08:31:05;;;;;;;29.67;14.80;;;10.90;71.20;;;;;;6190034;23;20307;-81
2022/03/27 08:33:32;;;;;;;26.85;14.63;;;11.10;71.10;;;;;;6192141;23;20036;-80
2022/03/27 08:35:58;;;;;;;29.25;14.20;;;11.20;70.90;;;;;;6192255;23;20001;-80
2022/03/27 08:38:36;;;;;;;26.45;13.70;;;11.30;70.70;;;;;;6167546;23;20303;-80
2022/03/27 08:41:02;;;;;;;27.20;14.35;;;11.50;70.50;;;;;;6166824;23;20059;-80
2022/03/27 08:43:31;;;;;;;22.73;12.40;;;11.60;69.90;;;;;;6191835;23;20009;-80
2022/03/27 08:45:58;;;;;;;26.33;14.65;;;11.80;70.00;;;;;;6165799;23;20040;-81
2022/03/27 08:48:30;;;;;;;28.67;16.05;;;12.00;69.50;;;;;;6193599;23;20032;-81
2022/03/27 08:55:17;;;;;;;24.48;13.73;;;12.20;68.20;;;;;;6194858;23;20040;-79
2022/03/27 08:58:34;;;;;;;25.10;13.15;;;12.30;68.60;;;;;;6195078;23;20064;-79
2022/03/27 09:01:32;;;;;;;25.38;13.35;;;12.50;68.60;;;;;;6171439;23;20028;-81
2022/03/27 09:03:58;;;;;;;23.35;12.98;;;12.80;67.90;;;;;;6193230;23;20013;-80
2022/03/27 09:06:36;;;;;;;21.88;12.35;;;12.90;67.50;;;;;;6192437;23;20008;-81
2022/03/27 09:09:02;;;;;;;24.45;12.75;;;13.00;67.40;;;;;;6168515;23;20008;-81
2022/03/27 09:15:10;;;;;;;23.35;12.55;;;13.30;66.70;;;;;;6194594;23;20056;-82
2022/03/27 09:18:04;;;;;;;25.30;13.00;;;13.50;66.40;;;;;;6193702;23;20013;-82
2022/03/27 09:27:58;;;;;;;22.33;12.00;;;13.70;66.10;;;;;;6190325;23;20187;-81
2022/03/27 09:30:36;;;;;;;21.58;12.05;;;14.00;65.30;;;;;;6192218;23;20119;-81
2022/03/27 09:33:02;;;;;;;23.27;12.27;;;14.10;65.10;;;;;;6144220;23;20072;-82
2022/03/27 09:52:01;;;;;;;22.92;12.05;;;15.00;62.90;;;;;;6110032;23;20013;-82
2022/03/27 09:58:53;;;;;;;24.08;11.93;;;15.50;62.20;;;;;;5991071;24;20036;-82
2022/03/27 10:01:53;;;;;;;21.10;11.15;;;15.50;61.40;;;;;;5993424;23;20082;-79
2022/03/27 10:04:18;;;;;;;21.92;10.75;;;15.60;61.50;;;;;;6022235;23;20012;-81
2022/03/27 10:07:12;;;;;;;21.88;11.52;;;15.70;61.60;;;;;;6046453;23;20096;-81
2022/03/27 10:10:28;;;;;;;20.77;10.70;;;15.80;60.90;;;;;;6046278;23;20228;-80
2022/03/27 10:13:48;;;;;;;22.25;11.20;;;15.90;60.80;;;;;;6046382;23;20253;-85
2022/03/27 10:16:43;;;;;;;19.00;10.35;;;16.10;61.00;;;;;;6022457;23;20015;-81
2022/03/27 10:19:46;;;;;;;21.33;11.45;;;16.30;60.20;;;;;;6038952;23;20050;-81
2022/03/27 10:22:20;;;;;;;20.65;10.75;;;16.30;59.40;;;;;;6022613;23;20018;-80
2022/03/27 10:25:21;;;;;;;24.30;11.55;;;16.50;59.90;;;;;;6046159;23;20015;-80
2022/03/27 10:28:18;;;;;;;19.13;10.88;;;16.70;60.20;;;;;;6046315;23;20007;-81
2022/03/27 10:30:51;;;;;;;26.13;12.27;;;16.70;59.70;;;;;;6045325;23;20019;-82
2022/03/27 10:33:19;;;;;;;23.58;11.65;;;16.70;59.50;;;;;;6121997;23;20009;-80
2022/03/27 10:36:03;;;;;;;24.80;12.38;;;16.80;59.50;;;;;;6134031;23;20002;-80
2022/03/27 10:38:59;;;;;;;21.45;11.45;;;16.90;59.20;;;;;;6158891;23;20005;-81
2022/03/27 10:42:03;;;;;;;23.15;12.02;;;17.00;59.10;;;;;;6109176;23;20390;-82
2022/03/27 10:44:57;;;;;;;24.25;12.10;;;17.10;59.30;;;;;;6109257;23;20048;-82
2022/03/27 10:48:01;;;;;;;19.65;10.43;;;17.30;59.10;;;;;;6157154;23;20374;-80
2022/03/27 10:50:27;;;;;;;19.25;11.63;;;17.50;58.40;;;;;;6136864;23;20016;-82
2022/03/27 10:52:54;;;;;;;19.95;11.32;;;17.70;59.10;;;;;;6136572;23;20081;-82
2022/03/27 10:55:19;;;;;;;20.65;10.27;;;17.80;57.10;;;;;;6188124;23;20001;-81
2022/03/27 10:57:49;;;;;;;21.52;11.40;;;18.00;56.80;;;;;;6164496;23;20065;-83
2022/03/27 11:00:35;;;;;;;21.88;11.25;;;18.30;56.60;;;;;;6137149;23;19989;-79
2022/03/27 11:03:01;;;;;;;20.00;10.52;;;18.40;56.80;;;;;;6162218;23;20086;-82
2022/03/27 11:05:36;;;;;;;20.02;10.60;;;18.60;55.80;;;;;;6186858;23;20077;-80
2022/03/27 11:08:17;;;;;;;18.42;10.30;;;18.80;55.40;;;;;;6163772;23;20032;-80
2022/03/27 11:10:52;;;;;;;22.33;10.68;;;19.10;54.30;;;;;;6164995;23;20036;-79
2022/03/27 11:13:27;;;;;;;21.02;11.13;;;20.00;53.30;;;;;;6163973;23;20021;-82
2022/03/27 11:16:06;;;;;;;18.80;10.40;;;20.90;52.00;;;;;;6167093;23;20009;-82
2022/03/27 11:18:37;;;;;;;19.98;9.77;;;21.70;51.30;;;;;;6195628;23;20008;-81
2022/03/27 11:21:04;;;;;;;19.45;10.50;;;22.50;48.50;;;;;;6192598;23;20065;-81
2022/03/27 11:23:32;;;;;;;17.30;9.35;;;23.40;47.70;;;;;;6168110;23;20019;-82
2022/03/27 11:26:00;;;;;;;18.52;9.35;;;24.40;46.90;;;;;;6176870;23;20004;-81
2022/03/27 11:37:45;;;;;;;15.23;9.52;;;27.90;42.40;;;;;;6167553;23;20028;-83
2022/03/27 11:40:51;;;;;;;15.32;8.70;;;28.10;41.10;;;;;;6193617;23;20059;-85
2022/03/27 11:43:34;;;;;;;12.75;8.10;;;28.50;40.80;;;;;;6165231;23;20005;-84
2022/03/27 11:50:43;;;;;;;12.20;8.55;;;29.10;39.70;;;;;;6102396;23;20017;-83
2022/03/27 11:53:17;;;;;;;11.52;7.70;;;30.00;39.00;;;;;;6078640;23;20045;-83
2022/03/27 11:55:47;;;;;;;10.88;7.28;;;31.00;38.30;;;;;;6079794;23;20010;-85
2022/03/27 11:59:01;;;;;;;;;;;;;;;;;;;;;
2022/03/27 12:16:37;;;;;;;9.98;6.43;;;33.90;35.10;;;;;;6164650;23;20021;-83
2022/03/27 12:19:20;;;;;;;12.18;7.55;;;34.30;35.20;;;;;;6186756;23;20018;-85
2022/03/27 12:21:58;;;;;;;10.13;6.72;;;33.30;35.00;;;;;;6188359;23;20001;-84
2022/03/27 12:25:01;;;;;;;13.18;7.30;;;33.50;35.70;;;;;;6190454;23;20080;-83
2022/03/27 12:31:44;;;;;;;13.05;7.95;;;34.50;35.10;;;;;;6189700;23;20222;-82
2022/03/27 12:34:55;;;;;;;11.98;7.10;;;35.20;35.00;;;;;;6070967;23;20208;-83
2022/03/27 12:38:17;;;;;;;11.35;7.88;;;35.90;34.50;;;;;;6084870;23;20252;-82
2022/03/27 12:41:01;;;;;;;13.27;7.95;;;36.70;34.10;;;;;;6081885;23;20021;-83
2022/03/27 12:44:16;;;;;;;13.52;8.23;;;36.30;33.90;;;;;;6081306;23;20042;-83
2022/03/27 12:47:13;;;;;;;10.65;7.80;;;36.20;33.90;;;;;;6046264;23;20022;-83
2022/03/27 12:49:50;;;;;;;12.25;8.07;;;36.70;33.80;;;;;;6047699;23;20106;-83
2022/03/27 12:52:17;;;;;;;13.68;7.68;;;36.80;33.50;;;;;;6046694;23;20428;-80
2022/03/27 12:55:04;;;;;;;10.88;7.43;;;36.20;33.60;;;;;;6023219;23;20011;-85
2022/03/27 12:57:49;;;;;;;15.25;9.77;;;35.30;33.40;;;;;;6023606;23;20011;-82
2022/03/27 13:00:16;;;;;;;10.90;6.78;;;35.80;34.20;;;;;;6026970;23;20011;-83
2022/03/27 13:03:14;;;;;;;10.63;7.50;;;36.70;33.40;;;;;;6023253;23;20204;-82
2022/03/27 13:06:01;;;;;;;13.25;7.82;;;36.90;32.90;;;;;;6047299;23;20296;-81
2022/03/27 13:08:34;;;;;;;13.32;8.02;;;38.10;33.90;;;;;;6025288;23;20238;-84
2022/03/27 13:11:02;;;;;;;13.55;8.50;;;38.00;32.60;;;;;;6080615;23;20296;-82
2022/03/27 13:13:35;;;;;;;11.90;7.30;;;37.60;32.80;;;;;;6079958;23;20038;-85
2022/03/27 13:16:17;;;;;;;14.25;7.43;;;38.20;33.00;;;;;;6103259;23;20072;-82
2022/03/27 13:18:42;;;;;;;11.23;7.05;;;38.70;32.60;;;;;;6189625;23;20056;-83
2022/03/27 13:21:15;;;;;;;12.10;7.30;;;38.80;32.60;;;;;;6192748;23;20032;-84
2022/03/27 13:23:40;;;;;;;11.90;7.20;;;39.50;32.20;;;;;;6194265;23;20001;-82
2022/03/27 13:26:06;;;;;;;12.85;6.82;;;39.80;32.00;;;;;;6193667;23;20000;-84
2022/03/27 13:28:32;;;;;;;11.20;6.95;;;40.00;32.20;;;;;;6194678;23;20001;-80
2022/03/27 13:30:58;;;;;;;10.80;7.07;;;40.00;31.60;;;;;;6193128;23;20013;-83
2022/03/27 13:33:24;;;;;;;10.90;6.75;;;39.40;31.60;;;;;;6194093;23;20299;-82
2022/03/27 13:35:49;;;;;;;11.13;6.75;;;39.40;32.00;;;;;;6193798;23;20036;-83
2022/03/27 13:38:16;;;;;;;14.68;7.90;;;39.50;31.80;;;;;;6193633;23;20286;-81
2022/03/27 13:43:54;;;;;;;11.82;6.65;;;39.90;31.70;;;;;;6195308;23;20005;-82
2022/03/27 13:46:20;;;;;;;11.63;6.93;;;40.50;31.80;;;;;;6216867;23;20352;-81
2022/03/27 13:48:55;;;;;;;10.00;6.72;;;41.00;31.20;;;;;;6218351;23;20009;-81
2022/03/27 13:51:22;;;;;;;10.75;6.88;;;41.50;31.40;;;;;;6193566;23;20019;-83
2022/03/27 13:53:48;;;;;;;10.95;6.85;;;41.50;31.50;;;;;;6193387;23;20009;-83
2022/03/27 13:56:14;;;;;;;11.48;6.68;;;42.00;31.10;;;;;;6218183;23;20310;-82
2022/03/27 13:58:43;;;;;;;10.13;7.50;;;41.90;30.80;;;;;;6193556;23;20310;-82
2022/03/27 14:01:09;;;;;;;8.73;6.20;;;41.70;31.00;;;;;;6215563;23;20066;-85
2022/03/27 14:03:35;;;;;;;9.60;6.18;;;42.30;31.00;;;;;;6194105;23;20320;-83
2022/03/27 14:06:01;;;;;;;11.52;6.30;;;41.70;31.50;;;;;;6194038;23;20004;-83
2022/03/27 14:08:27;;;;;;;10.23;6.40;;;41.70;31.30;;;;;;6193433;23;20001;-83
2022/03/27 14:10:53;;;;;;;10.18;6.65;;;42.00;30.90;;;;;;6218469;23;20023;-81
2022/03/27 14:17:09;;;;;;;8.52;6.57;;;41.10;31.20;;;;;;6193431;23;20080;-83
2022/03/27 14:19:36;;;;;;;9.63;6.13;;;41.90;30.70;;;;;;6194806;23;20232;-82
2022/03/27 14:22:03;;;;;;;13.20;6.77;;;42.60;30.60;;;;;;6193677;23;20001;-83
2022/03/27 14:24:29;;;;;;;9.15;5.75;;;42.10;30.40;;;;;;6169112;23;20015;-84
2022/03/27 14:26:55;;;;;;;9.18;6.35;;;42.80;30.80;;;;;;6143934;23;20345;-84
2022/03/27 14:29:22;;;;;;;8.35;6.28;;;43.20;30.80;;;;;;6193793;23;20017;-80
2022/03/27 14:31:52;;;;;;;13.57;6.83;;;41.80;30.00;;;;;;6193174;23;20017;-83
2022/03/27 14:34:55;;;;;;;10.18;6.72;;;41.10;30.30;;;;;;6161173;23;20080;-84
2022/03/27 14:37:50;;;;;;;9.73;6.70;;;40.40;30.10;;;;;;6161176;23;20001;-81
2022/03/27 14:40:15;;;;;;;9.40;6.60;;;42.10;30.40;;;;;;6160724;23;20303;-83
2022/03/27 14:42:56;;;;;;;9.77;6.30;;;43.60;30.90;;;;;;6137038;23;20097;-81
2022/03/27 14:45:22;;;;;;;10.43;6.20;;;43.70;30.20;;;;;;6160257;23;20088;-80
2022/03/27 14:48:13;;;;;;;14.32;7.05;;;43.10;30.00;;;;;;6160663;23;20016;-81
2022/03/27 14:50:39;;;;;;;8.60;5.88;;;42.80;30.30;;;;;;6138144;23;20002;-81
2022/03/27 14:53:05;;;;;;;9.18;6.45;;;42.40;30.40;;;;;;6162419;23;20031;-81
2022/03/27 14:58:18;;;;;;;11.00;6.18;;;41.70;30.00;;;;;;6136158;23;20010;-80
2022/03/27 15:00:46;;;;;;;11.50;6.55;;;40.60;31.20;;;;;;6161360;23;20006;-83
2022/03/27 15:03:12;;;;;;;11.45;6.55;;;40.20;30.20;;;;;;6160378;23;20078;-83
2022/03/27 15:05:39;;;;;;;9.27;6.10;;;39.90;30.00;;;;;;6181985;23;20088;-83
2022/03/27 15:08:06;;;;;;;12.20;6.63;;;39.20;29.80;;;;;;6193684;23;20005;-80
2022/03/27 15:10:34;;;;;;;9.93;6.63;;;39.90;30.50;;;;;;6193741;23;20028;-81
2022/03/27 15:13:00;;;;;;;9.57;6.15;;;40.90;30.20;;;;;;6172187;23;19997;-81
2022/03/27 15:15:26;;;;;;;10.18;6.60;;;40.60;30.00;;;;;;6176748;23;20149;-79
2022/03/27 15:17:53;;;;;;;8.85;5.45;;;39.90;29.80;;;;;;6239773;22;20027;-81
2022/03/27 15:20:20;;;;;;;9.20;6.03;;;39.90;30.10;;;;;;6238995;22;19997;-82
2022/03/27 15:22:46;;;;;;;8.82;5.78;;;39.80;30.20;;;;;;6240372;22;20212;-80
2022/03/27 15:25:12;;;;;;;13.20;6.00;;;40.20;29.90;;;;;;6223421;23;20004;-82
2022/03/27 15:27:41;;;;;;;9.82;5.80;;;41.00;30.60;;;;;;6222348;23;20008;-80
2022/03/27 15:30:08;;;;;;;9.52;5.93;;;42.00;30.00;;;;;;6196338;23;20035;-81
2022/03/27 15:32:35;;;;;;;7.57;5.50;;;41.60;29.90;;;;;;6197081;23;20039;-82
2022/03/27 15:35:05;;;;;;;10.40;5.55;;;41.80;30.20;;;;;;6196743;23;20065;-81
2022/03/27 15:37:35;;;;;;;10.55;5.90;;;42.00;30.90;;;;;;6222924;23;19996;-79
2022/03/27 15:40:03;;;;;;;10.20;6.28;;;42.50;30.00;;;;;;6223335;23;20008;-82
2022/03/27 15:42:28;;;;;;;12.13;5.95;;;41.80;30.20;;;;;;6196346;23;20286;-83
2022/03/27 15:44:54;;;;;;;10.80;5.03;;;41.00;30.50;;;;;;6223490;23;19997;-80
2022/03/27 15:47:32;;;;;;;10.73;5.25;;;41.00;30.40;;;;;;6194432;23;20024;-80
2022/03/27 15:50:21;;;;;;;10.32;6.38;;;40.80;30.80;;;;;;6217832;23;20012;-81
2022/03/27 15:52:47;;;;;;;8.85;5.38;;;41.20;30.60;;;;;;6223172;23;20313;-80
2022/03/27 15:55:26;;;;;;;10.38;5.50;;;41.10;30.50;;;;;;6222618;23;20001;-81
2022/03/27 15:57:55;;;;;;;9.70;5.80;;;40.50;30.80;;;;;;6223271;23;20005;-80
2022/03/27 16:00:55;;;;;;;10.73;5.97;;;40.40;30.80;;;;;;6224192;23;20016;-79
2022/03/27 16:03:21;;;;;;;13.48;6.80;;;40.00;30.60;;;;;;6224170;23;20014;-80
2022/03/27 16:05:47;;;;;;;8.48;5.55;;;39.50;30.80;;;;;;6224687;23;20001;-78
2022/03/27 16:08:14;;;;;;;9.57;5.97;;;39.20;30.90;;;;;;6198325;23;20081;-79
2022/03/27 16:10:40;;;;;;;13.82;6.15;;;39.60;30.60;;;;;;6198727;23;20021;-78
2022/03/27 16:13:06;;;;;;;10.48;5.70;;;39.30;30.50;;;;;;6225453;23;20300;-81
2022/03/27 16:15:32;;;;;;;11.25;6.47;;;39.10;31.40;;;;;;6224585;23;20017;-80
2022/03/27 16:18:29;;;;;;;10.43;6.40;;;39.10;31.30;;;;;;6225072;23;20313;-79
2022/03/27 16:20:55;;;;;;;11.55;5.80;;;38.50;31.70;;;;;;6198256;23;20194;-81
2022/03/27 16:23:27;;;;;;;10.95;5.60;;;39.20;32.20;;;;;;6224770;23;20020;-82
2022/03/27 16:25:56;;;;;;;8.70;5.28;;;38.70;31.30;;;;;;6225049;23;20027;-82
2022/03/27 16:28:22;;;;;;;10.60;5.78;;;38.90;31.40;;;;;;6224974;23;20043;-81
2022/03/27 16:30:48;;;;;;;11.57;6.05;;;39.20;31.30;;;;;;6198308;23;20021;-81
2022/03/27 16:33:14;;;;;;;11.00;5.80;;;38.60;31.10;;;;;;6197976;23;20009;-82
2022/03/27 16:35:42;;;;;;;7.10;5.00;;;38.00;31.40;;;;;;6225342;23;20074;-82
2022/03/27 16:38:26;;;;;;;11.43;5.72;;;37.50;32.20;;;;;;6223684;23;20004;-81
2022/03/27 16:40:52;;;;;;;12.23;6.45;;;38.10;32.40;;;;;;6198870;23;20294;-80
2022/03/27 16:43:18;;;;;;;12.32;6.35;;;37.90;31.80;;;;;;6224903;23;20008;-84
2022/03/27 16:45:44;;;;;;;9.60;5.50;;;37.00;31.70;;;;;;6224726;23;20032;-81
2022/03/27 16:48:10;;;;;;;10.93;6.47;;;36.40;32.10;;;;;;6225243;23;19996;-80
2022/03/27 16:50:36;;;;;;;9.05;6.10;;;35.00;32.30;;;;;;6225493;23;20000;-80
2022/03/27 16:53:02;;;;;;;11.48;6.68;;;33.40;34.30;;;;;;6199834;23;20009;-81
2022/03/27 16:55:28;;;;;;;11.20;6.18;;;32.10;33.90;;;;;;6198389;23;20329;-82
2022/03/27 16:58:00;;;;;;;9.63;6.10;;;30.50;35.00;;;;;;6198610;23;20001;-80
2022/03/27 17:00:29;;;;;;;12.07;6.25;;;29.40;35.60;;;;;;6197479;23;20005;-82
2022/03/27 17:02:54;;;;;;;10.13;6.85;;;28.70;37.20;;;;;;6224950;23;20001;-81
2022/03/27 17:05:20;;;;;;;12.65;6.40;;;28.00;36.90;;;;;;6197705;23;20067;-82
2022/03/27 17:07:46;;;;;;;12.32;6.65;;;26.90;37.40;;;;;;6199375;23;20019;-81
2022/03/27 17:10:16;;;;;;;15.63;6.90;;;26.10;38.30;;;;;;6224727;23;20005;-81
2022/03/27 17:12:51;;;;;;;14.48;6.80;;;25.40;38.70;;;;;;6198019;23;20082;-81
2022/03/27 17:15:16;;;;;;;11.80;6.60;;;24.70;39.40;;;;;;6223381;23;20047;-80
2022/03/27 17:17:43;;;;;;;13.48;7.45;;;24.20;40.10;;;;;;6218594;23;20045;-79
2022/03/27 17:20:27;;;;;;;14.32;6.55;;;23.80;40.40;;;;;;6194896;23;20020;-81
2022/03/27 17:22:55;;;;;;;11.82;6.50;;;23.60;41.30;;;;;;6217802;23;20007;-80
2022/03/27 17:25:21;;;;;;;13.52;6.65;;;23.40;41.10;;;;;;6192651;23;20009;-80
2022/03/27 17:27:47;;;;;;;11.90;6.32;;;23.00;41.20;;;;;;6218075;23;20047;-81
2022/03/27 17:30:13;;;;;;;13.07;6.22;;;22.80;42.60;;;;;;6216919;23;20004;-82
2022/03/27 17:32:39;;;;;;;14.15;6.72;;;22.70;42.40;;;;;;6191624;23;20013;-81
2022/03/27 17:35:07;;;;;;;11.32;5.82;;;22.60;42.90;;;;;;6194240;23;20035;-81
2022/03/27 17:37:34;;;;;;;13.02;7.30;;;22.30;43.30;;;;;;6192236;23;20024;-80
2022/03/27 17:40:00;;;;;;;13.15;6.65;;;22.00;43.20;;;;;;6218838;23;20028;-84
2022/03/27 17:42:26;;;;;;;11.10;6.68;;;21.80;43.90;;;;;;6191836;23;20001;-81
2022/03/27 17:44:52;;;;;;;11.57;6.03;;;21.60;44.30;;;;;;6194483;23;20029;-82
2022/03/27 17:47:18;;;;;;;11.90;6.78;;;21.40;44.00;;;;;;6193385;23;20013;-83
2022/03/27 17:49:50;;;;;;;11.85;6.13;;;21.00;44.90;;;;;;6191636;23;20060;-85
2022/03/27 17:52:18;;;;;;;10.50;6.80;;;20.90;45.40;;;;;;6192840;23;20227;-83
2022/03/27 17:54:44;;;;;;;13.77;6.07;;;20.70;45.90;;;;;;6191748;23;20012;-82
2022/03/27 17:57:10;;;;;;;14.43;6.70;;;20.70;45.90;;;;;;6193698;23;20008;-81
2022/03/27 17:59:36;;;;;;;13.48;6.05;;;20.60;46.00;;;;;;6193165;23;20009;-81
2022/03/27 18:02:03;;;;;;;13.35;7.20;;;20.40;46.20;;;;;;6193025;23;20031;-80
2022/03/27 18:04:29;;;;;;;14.27;7.10;;;20.20;46.70;;;;;;6192039;23;20097;-81
2022/03/27 18:06:55;;;;;;;12.60;6.70;;;20.10;46.90;;;;;;6193897;23;20031;-80
2022/03/27 18:09:22;;;;;;;14.93;7.57;;;20.00;47.10;;;;;;6216968;23;20005;-80
2022/03/27 18:11:49;;;;;;;12.60;6.40;;;19.80;47.40;;;;;;6194286;23;19996;-80
2022/03/27 18:14:15;;;;;;;17.73;7.47;;;19.60;47.80;;;;;;6193595;23;20342;-80
2022/03/27 18:16:44;;;;;;;11.30;6.78;;;19.30;48.20;;;;;;6193264;23;20076;-80
2022/03/27 18:19:09;;;;;;;;;;;19.30;48.80;;;;;;6195006;23;20016;-79
2022/03/27 18:21:43;;;;;;;12.65;6.43;;;19.10;48.60;;;;;;6167183;23;19904;-79
2022/03/27 18:24:12;;;;;;;13.15;6.80;;;18.90;48.80;;;;;;6168977;23;20012;-81
2022/03/27 18:26:38;;;;;;;13.63;6.47;;;18.70;49.30;;;;;;6193139;23;20450;-80
2022/03/27 18:29:04;;;;;;;13.75;6.60;;;18.70;49.70;;;;;;6193620;23;20032;-82
2022/03/27 18:31:29;;;;;;;14.13;6.55;;;18.70;49.90;;;;;;6192838;23;20013;-81
2022/03/27 18:33:58;;;;;;;14.88;8.10;;;18.60;50.10;;;;;;6167289;23;20199;-81
2022/03/27 18:36:24;;;;;;;17.48;8.13;;;18.40;50.30;;;;;;6193041;23;20271;-80
2022/03/27 18:38:50;;;;;;;17.02;8.75;;;18.10;50.80;;;;;;6167408;23;20001;-80